Agnes, Georgia
Current Conditions -  °F | °C
As of 12:55 PM on Friday 31 Oct 2014 (Local Time) from KHQU Reporting Station
Clear Clear  
Wind Chill: 67°   Ceiling: Unl
Heat Index: 67°   Visibility: 10mi
Dew Point: 53°   Wind: 0mph
Humidity: 62%   Direction: NA
Pressure: 29.92"   Gusts: NA
Location:  33.7816°N, 82.4511°W
Report Text: KHQU 311655Z AUTO 00000KT 10SM CLR 19/12 A2992 RMK AO1 T01940119
Loading
Personal Weather Stations






























Interactive Weather Map
Tropical Storm Tracking
New forecast layout! Learn more

10-Day Weather Forecast

Advertisements
Track Severe Weather on mobile